OOL weather

Gold Coast Airport
Gold Coast, Queensland, Australia

Public forecast

Using degrees Celsius for public forecast. Weather courtesy of forecast.io.

METAR (pilot weather report)

Retrieved 2018/06/18 04:30 UTC (21 minutes ago):

YBCG 180430Z AUTO 17007KT 9999 // NCD 19/02 Q1013 RF00.0/000.0

TAF (pilot weather forecast)

Forecast is more than 12 hours old.

Retrieved 2018/06/17 00:00 UTC (1 day ago):

TAF YBCG 172302Z 1800/1824 25012KT CAVOK FM181200 24008KT CAVOK